Shelbyville, IN (46176)

10:22 AM EST on February 12, 2016 (GMT -0500)
KO9OK | | Change Station
CLOSE
Current Station
Personal Weather Station
Location: Shelbyville, IN
Elevation: 774 ft
Nearby Weather Stations

Elev 774 ft 39.55 °N, 85.78 °W | Updated 8 minutes ago

Overcast
Overcast
23.5 °F
Feels Like 16 °F
N
5.8
Wind Variable Wind from SSW

Today
High -- | Low -- °F
--% Chance of Precip.
Yesterday
High -- | Low -- °F
Precip. -- in
Pressure 30.19 in
Visibility 10.0 miles
Clouds Overcast 4100 ft
Windchill 16 °F
Dew Point 15 °F
Humidity 70%
Rainfall 0.00 in
Snow Depth Not available.
7:39 AM 6:15 PM
Waxing Crescent, 21% visible
METAR KGEZ 121453Z AUTO 21006KT 10SM OVC041 M05/M11 A3015 RMK AO2 SLP222 T10501106 58006
Pressure 30.19 in
Visibility 10.0 miles
Clouds Overcast 4100 ft
Windchill 16 °F
Dew Point 15 °F
Humidity 70%
Rainfall 0.00 in
Snow Depth Not available.
7:39 AM 6:15 PM
Waxing Crescent, 21% visible
METAR KGEZ 121453Z AUTO 21006KT 10SM OVC041 M05/M11 A3015 RMK AO2 SLP222 T10501106 58006

10-Day Weather Forecast

Almanac

Astronomy

Feb. 12, 2016 Rise Set
Actual Time
Civil Twilight
Nautical Twilight
Astronomical Twilight
Moon
Length of Visible Light
Length of Day
Tomorrow will be .
, % of the Moon is Illuminated

Today's Extremes

State Highs State Lows

Community

WunderPhotos

Upload Photos

1,892,329 photos uploaded!

WunderBlog® & News

Nearby

Air Quality

  Air Quality AQ Index Pollutant
Not available.

Snow Depth

Station Depth Elevation

Earthquake Activity

City Distance Mag. Time & Date
Minimum magnitude displayed is 2.5.

Coastal Water Temperatures

Place Temperature

Stations

Nearby Weather Stations

Station Location Temp. Windchill Dew Point Humidity Wind Precip. Elev Updated Type
                   

Watches & Warnings

There are currently no watches in effect.